sensor_id;sensor_type;location;lat;lon;timestamp;P1;durP1;ratioP1;P2;durP2;ratioP2
47589;SDS011;33316;52.298;9.056;2022-08-19T00:00:04;2.42;;;1.40;;
47589;SDS011;33316;52.298;9.056;2022-08-19T00:02:32;4.13;;;1.73;;
47589;SDS011;33316;52.298;9.056;2022-08-19T00:04:58;2.58;;;1.30;;
47589;SDS011;33316;52.298;9.056;2022-08-19T00:07:23;2.92;;;1.38;;
47589;SDS011;33316;52.298;9.056;2022-08-19T00:09:49;4.07;;;1.40;;
47589;SDS011;33316;52.298;9.056;2022-08-19T00:12:14;3.05;;;1.58;;
47589;SDS011;33316;52.298;9.056;2022-08-19T00:14:40;5.15;;;2.30;;
47589;SDS011;33316;52.298;9.056;2022-08-19T00:17:06;4.32;;;1.67;;
47589;SDS011;33316;52.298;9.056;2022-08-19T00:19:33;2.72;;;1.90;;
47589;SDS011;33316;52.298;9.056;2022-08-19T00:22:00;2.97;;;1.60;;
47589;SDS011;33316;52.298;9.056;2022-08-19T00:24:27;3.55;;;1.83;;
47589;SDS011;33316;52.298;9.056;2022-08-19T00:26:53;2.67;;;1.73;;
47589;SDS011;33316;52.298;9.056;2022-08-19T00:29:21;3.42;;;1.50;;
47589;SDS011;33316;52.298;9.056;2022-08-19T00:31:48;4.78;;;1.50;;
47589;SDS011;33316;52.298;9.056;2022-08-19T00:34:17;1.85;;;1.30;;
47589;SDS011;33316;52.298;9.056;2022-08-19T00:36:44;2.25;;;1.40;;
47589;SDS011;33316;52.298;9.056;2022-08-19T00:39:10;2.47;;;1.40;;
47589;SDS011;33316;52.298;9.056;2022-08-19T00:41:37;2.35;;;1.67;;
47589;SDS011;33316;52.298;9.056;2022-08-19T00:44:11;3.20;;;1.75;;
47589;SDS011;33316;52.298;9.056;2022-08-19T00:46:48;2.70;;;1.30;;
47589;SDS011;33316;52.298;9.056;2022-08-19T00:49:16;2.35;;;1.27;;
47589;SDS011;33316;52.298;9.056;2022-08-19T00:51:48;3.88;;;1.63;;
47589;SDS011;33316;52.298;9.056;2022-08-19T00:54:18;3.28;;;1.75;;
47589;SDS011;33316;52.298;9.056;2022-08-19T00:56:44;3.78;;;2.13;;
47589;SDS011;33316;52.298;9.056;2022-08-19T00:59:11;1.95;;;1.45;;
47589;SDS011;33316;52.298;9.056;2022-08-19T01:01:40;5.13;;;2.10;;
47589;SDS011;33316;52.298;9.056;2022-08-19T01:06:33;2.00;;;1.40;;
47589;SDS011;33316;52.298;9.056;2022-08-19T01:09:01;1.95;;;1.73;;
47589;SDS011;33316;52.298;9.056;2022-08-19T01:11:28;4.07;;;2.15;;
47589;SDS011;33316;52.298;9.056;2022-08-19T01:13:56;4.10;;;2.03;;
47589;SDS011;33316;52.298;9.056;2022-08-19T01:16:24;2.72;;;1.98;;
47589;SDS011;33316;52.298;9.056;2022-08-19T01:18:51;2.75;;;1.90;;
47589;SDS011;33316;52.298;9.056;2022-08-19T01:24:03;2.65;;;1.77;;
47589;SDS011;33316;52.298;9.056;2022-08-19T01:26:29;3.13;;;2.00;;
47589;SDS011;33316;52.298;9.056;2022-08-19T01:28:56;2.85;;;2.08;;
47589;SDS011;33316;52.298;9.056;2022-08-19T01:31:25;2.50;;;1.83;;
47589;SDS011;33316;52.298;9.056;2022-08-19T01:33:52;3.60;;;1.90;;
47589;SDS011;33316;52.298;9.056;2022-08-19T01:36:23;2.85;;;1.48;;
47589;SDS011;33316;52.298;9.056;2022-08-19T01:38:52;4.20;;;2.17;;
47589;SDS011;33316;52.298;9.056;2022-08-19T01:41:18;2.53;;;1.80;;
47589;SDS011;33316;52.298;9.056;2022-08-19T01:43:44;2.83;;;1.90;;
47589;SDS011;33316;52.298;9.056;2022-08-19T01:46:10;3.13;;;2.10;;
47589;SDS011;33316;52.298;9.056;2022-08-19T01:48:39;3.33;;;2.08;;
47589;SDS011;33316;52.298;9.056;2022-08-19T01:53:32;4.53;;;2.13;;
47589;SDS011;33316;52.298;9.056;2022-08-19T01:55:59;2.70;;;1.80;;
47589;SDS011;33316;52.298;9.056;2022-08-19T01:58:35;3.70;;;2.10;;
47589;SDS011;33316;52.298;9.056;2022-08-19T02:01:05;3.75;;;2.55;;
47589;SDS011;33316;52.298;9.056;2022-08-19T02:03:31;3.92;;;2.60;;
47589;SDS011;33316;52.298;9.056;2022-08-19T02:06:01;6.60;;;2.63;;
47589;SDS011;33316;52.298;9.056;2022-08-19T02:08:27;5.05;;;2.63;;
47589;SDS011;33316;52.298;9.056;2022-08-19T02:10:58;3.95;;;2.58;;
47589;SDS011;33316;52.298;9.056;2022-08-19T02:13:24;5.13;;;3.58;;
47589;SDS011;33316;52.298;9.056;2022-08-19T02:15:51;5.72;;;3.05;;
47589;SDS011;33316;52.298;9.056;2022-08-19T02:18:16;4.97;;;3.40;;
47589;SDS011;33316;52.298;9.056;2022-08-19T02:20:42;5.00;;;3.10;;
47589;SDS011;33316;52.298;9.056;2022-08-19T02:23:09;5.07;;;3.53;;
47589;SDS011;33316;52.298;9.056;2022-08-19T02:25:36;3.97;;;2.80;;
47589;SDS011;33316;52.298;9.056;2022-08-19T02:28:02;5.05;;;3.63;;
47589;SDS011;33316;52.298;9.056;2022-08-19T02:30:28;4.63;;;3.58;;
47589;SDS011;33316;52.298;9.056;2022-08-19T02:32:53;3.97;;;3.30;;
47589;SDS011;33316;52.298;9.056;2022-08-19T02:35:19;5.03;;;3.47;;
47589;SDS011;33316;52.298;9.056;2022-08-19T02:37:45;4.50;;;3.38;;
47589;SDS011;33316;52.298;9.056;2022-08-19T02:40:30;5.07;;;2.95;;
47589;SDS011;33316;52.298;9.056;2022-08-19T02:42:59;5.10;;;2.75;;
47589;SDS011;33316;52.298;9.056;2022-08-19T02:45:33;3.55;;;2.92;;
47589;SDS011;33316;52.298;9.056;2022-08-19T02:48:00;4.10;;;3.03;;
47589;SDS011;33316;52.298;9.056;2022-08-19T02:50:25;5.32;;;3.05;;
47589;SDS011;33316;52.298;9.056;2022-08-19T02:52:51;4.00;;;3.40;;
47589;SDS011;33316;52.298;9.056;2022-08-19T02:55:16;5.22;;;3.25;;
47589;SDS011;33316;52.298;9.056;2022-08-19T02:57:42;6.25;;;3.97;;
47589;SDS011;33316;52.298;9.056;2022-08-19T03:00:08;5.20;;;3.47;;
47589;SDS011;33316;52.298;9.056;2022-08-19T03:02:37;6.20;;;3.50;;
47589;SDS011;33316;52.298;9.056;2022-08-19T03:05:03;7.13;;;3.60;;
47589;SDS011;33316;52.298;9.056;2022-08-19T03:07:31;5.75;;;3.85;;
47589;SDS011;33316;52.298;9.056;2022-08-19T03:09:57;4.97;;;3.45;;
47589;SDS011;33316;52.298;9.056;2022-08-19T03:12:22;6.82;;;4.15;;
47589;SDS011;33316;52.298;9.056;2022-08-19T03:14:48;5.25;;;3.90;;
47589;SDS011;33316;52.298;9.056;2022-08-19T03:17:13;5.70;;;4.38;;
47589;SDS011;33316;52.298;9.056;2022-08-19T03:19:39;7.90;;;4.70;;
47589;SDS011;33316;52.298;9.056;2022-08-19T03:22:04;7.32;;;5.13;;
47589;SDS011;33316;52.298;9.056;2022-08-19T03:24:30;7.43;;;4.88;;
47589;SDS011;33316;52.298;9.056;2022-08-19T03:26:57;8.20;;;4.95;;
47589;SDS011;33316;52.298;9.056;2022-08-19T03:29:24;6.68;;;4.90;;
47589;SDS011;33316;52.298;9.056;2022-08-19T03:31:51;8.15;;;5.30;;
47589;SDS011;33316;52.298;9.056;2022-08-19T03:34:19;7.10;;;4.95;;
47589;SDS011;33316;52.298;9.056;2022-08-19T03:36:46;6.70;;;4.95;;
47589;SDS011;33316;52.298;9.056;2022-08-19T03:39:13;8.07;;;5.80;;
47589;SDS011;33316;52.298;9.056;2022-08-19T03:41:40;8.38;;;5.25;;
47589;SDS011;33316;52.298;9.056;2022-08-19T03:44:07;9.20;;;5.40;;
47589;SDS011;33316;52.298;9.056;2022-08-19T03:46:33;6.75;;;5.20;;
47589;SDS011;33316;52.298;9.056;2022-08-19T03:49:00;9.80;;;6.20;;
47589;SDS011;33316;52.298;9.056;2022-08-19T03:51:30;8.13;;;6.03;;
47589;SDS011;33316;52.298;9.056;2022-08-19T03:53:59;9.93;;;6.75;;
47589;SDS011;33316;52.298;9.056;2022-08-19T03:56:25;8.40;;;5.85;;
47589;SDS011;33316;52.298;9.056;2022-08-19T03:58:52;8.18;;;5.82;;
47589;SDS011;33316;52.298;9.056;2022-08-19T04:01:20;8.15;;;5.70;;
47589;SDS011;33316;52.298;9.056;2022-08-19T04:03:46;8.23;;;6.15;;
47589;SDS011;33316;52.298;9.056;2022-08-19T04:06:14;8.05;;;5.70;;
47589;SDS011;33316;52.298;9.056;2022-08-19T04:08:42;6.22;;;4.85;;
47589;SDS011;33316;52.298;9.056;2022-08-19T04:11:10;7.78;;;5.35;;
47589;SDS011;33316;52.298;9.056;2022-08-19T04:13:37;8.10;;;5.75;;
47589;SDS011;33316;52.298;9.056;2022-08-19T04:16:03;9.35;;;6.38;;
47589;SDS011;33316;52.298;9.056;2022-08-19T04:18:30;7.97;;;5.80;;
47589;SDS011;33316;52.298;9.056;2022-08-19T04:20:57;9.15;;;6.07;;
47589;SDS011;33316;52.298;9.056;2022-08-19T04:23:23;10.85;;;5.75;;
47589;SDS011;33316;52.298;9.056;2022-08-19T04:25:49;9.95;;;6.90;;
47589;SDS011;33316;52.298;9.056;2022-08-19T04:28:15;6.97;;;5.20;;
47589;SDS011;33316;52.298;9.056;2022-08-19T04:30:43;8.95;;;5.53;;
47589;SDS011;33316;52.298;9.056;2022-08-19T04:33:13;9.15;;;5.90;;
47589;SDS011;33316;52.298;9.056;2022-08-19T04:35:42;8.98;;;6.25;;
47589;SDS011;33316;52.298;9.056;2022-08-19T04:38:11;8.27;;;5.78;;
47589;SDS011;33316;52.298;9.056;2022-08-19T04:40:41;7.82;;;5.90;;
47589;SDS011;33316;52.298;9.056;2022-08-19T04:43:26;8.05;;;6.07;;
47589;SDS011;33316;52.298;9.056;2022-08-19T04:45:52;7.50;;;5.80;;
47589;SDS011;33316;52.298;9.056;2022-08-19T04:48:18;9.05;;;6.32;;
47589;SDS011;33316;52.298;9.056;2022-08-19T04:50:50;7.70;;;5.80;;
47589;SDS011;33316;52.298;9.056;2022-08-19T04:53:21;7.97;;;5.57;;
47589;SDS011;33316;52.298;9.056;2022-08-19T04:55:47;8.68;;;5.57;;
47589;SDS011;33316;52.298;9.056;2022-08-19T04:58:12;6.93;;;5.43;;
47589;SDS011;33316;52.298;9.056;2022-08-19T05:00:38;8.10;;;6.10;;
47589;SDS011;33316;52.298;9.056;2022-08-19T05:03:04;7.50;;;6.05;;
47589;SDS011;33316;52.298;9.056;2022-08-19T05:05:30;8.82;;;6.32;;
47589;SDS011;33316;52.298;9.056;2022-08-19T05:07:56;8.60;;;6.38;;
47589;SDS011;33316;52.298;9.056;2022-08-19T05:10:22;8.68;;;6.60;;
47589;SDS011;33316;52.298;9.056;2022-08-19T05:12:47;8.50;;;5.93;;
47589;SDS011;33316;52.298;9.056;2022-08-19T05:15:13;7.28;;;5.53;;
47589;SDS011;33316;52.298;9.056;2022-08-19T05:17:38;6.32;;;5.32;;
47589;SDS011;33316;52.298;9.056;2022-08-19T05:20:24;8.80;;;6.25;;
47589;SDS011;33316;52.298;9.056;2022-08-19T05:23:10;7.63;;;5.82;;
47589;SDS011;33316;52.298;9.056;2022-08-19T05:25:38;8.73;;;6.07;;
47589;SDS011;33316;52.298;9.056;2022-08-19T05:28:05;9.10;;;5.88;;
47589;SDS011;33316;52.298;9.056;2022-08-19T05:30:30;9.15;;;6.80;;
47589;SDS011;33316;52.298;9.056;2022-08-19T05:32:58;7.97;;;6.07;;
47589;SDS011;33316;52.298;9.056;2022-08-19T05:35:24;8.98;;;5.90;;
47589;SDS011;33316;52.298;9.056;2022-08-19T05:37:50;7.57;;;5.40;;
47589;SDS011;33316;52.298;9.056;2022-08-19T05:40:15;7.07;;;5.05;;
47589;SDS011;33316;52.298;9.056;2022-08-19T05:42:41;7.13;;;5.30;;
47589;SDS011;33316;52.298;9.056;2022-08-19T05:45:07;8.27;;;5.18;;
47589;SDS011;33316;52.298;9.056;2022-08-19T05:47:33;7.82;;;5.47;;
47589;SDS011;33316;52.298;9.056;2022-08-19T05:50:00;6.93;;;5.30;;
47589;SDS011;33316;52.298;9.056;2022-08-19T05:52:26;8.70;;;5.55;;
47589;SDS011;33316;52.298;9.056;2022-08-19T05:54:53;6.65;;;4.93;;
47589;SDS011;33316;52.298;9.056;2022-08-19T05:57:20;6.40;;;4.90;;
47589;SDS011;33316;52.298;9.056;2022-08-19T05:59:45;6.82;;;4.70;;
47589;SDS011;33316;52.298;9.056;2022-08-19T06:02:13;6.93;;;4.93;;
47589;SDS011;33316;52.298;9.056;2022-08-19T06:04:39;7.38;;;4.95;;
47589;SDS011;33316;52.298;9.056;2022-08-19T06:07:07;6.97;;;5.00;;
47589;SDS011;33316;52.298;9.056;2022-08-19T06:09:33;6.55;;;4.65;;
47589;SDS011;33316;52.298;9.056;2022-08-19T06:12:00;6.95;;;4.63;;
47589;SDS011;33316;52.298;9.056;2022-08-19T06:14:28;5.32;;;4.47;;
47589;SDS011;33316;52.298;9.056;2022-08-19T06:16:56;6.53;;;4.80;;
47589;SDS011;33316;52.298;9.056;2022-08-19T06:19:25;7.25;;;5.40;;
47589;SDS011;33316;52.298;9.056;2022-08-19T06:21:51;6.68;;;4.60;;
47589;SDS011;33316;52.298;9.056;2022-08-19T06:24:18;9.02;;;6.70;;
47589;SDS011;33316;52.298;9.056;2022-08-19T06:26:48;9.30;;;6.65;;
47589;SDS011;33316;52.298;9.056;2022-08-19T06:29:16;7.60;;;5.15;;
47589;SDS011;33316;52.298;9.056;2022-08-19T06:31:47;6.85;;;5.05;;
47589;SDS011;33316;52.298;9.056;2022-08-19T06:34:15;9.05;;;6.18;;
47589;SDS011;33316;52.298;9.056;2022-08-19T06:36:43;7.40;;;5.30;;
47589;SDS011;33316;52.298;9.056;2022-08-19T06:39:11;7.93;;;6.15;;
47589;SDS011;33316;52.298;9.056;2022-08-19T06:41:41;5.80;;;4.93;;
47589;SDS011;33316;52.298;9.056;2022-08-19T06:44:08;8.45;;;5.57;;
47589;SDS011;33316;52.298;9.056;2022-08-19T06:46:35;6.15;;;4.47;;
47589;SDS011;33316;52.298;9.056;2022-08-19T06:49:02;7.68;;;5.05;;
47589;SDS011;33316;52.298;9.056;2022-08-19T06:51:28;5.43;;;4.20;;
47589;SDS011;33316;52.298;9.056;2022-08-19T06:53:54;5.30;;;3.67;;
47589;SDS011;33316;52.298;9.056;2022-08-19T06:56:21;4.38;;;3.53;;
47589;SDS011;33316;52.298;9.056;2022-08-19T06:58:55;5.50;;;3.53;;
47589;SDS011;33316;52.298;9.056;2022-08-19T07:01:21;3.65;;;2.65;;
47589;SDS011;33316;52.298;9.056;2022-08-19T07:03:47;4.75;;;3.10;;
47589;SDS011;33316;52.298;9.056;2022-08-19T07:06:14;3.83;;;2.45;;
47589;SDS011;33316;52.298;9.056;2022-08-19T07:08:43;6.47;;;3.00;;
47589;SDS011;33316;52.298;9.056;2022-08-19T07:11:11;2.67;;;2.30;;
47589;SDS011;33316;52.298;9.056;2022-08-19T07:13:38;7.82;;;3.40;;
47589;SDS011;33316;52.298;9.056;2022-08-19T07:18:38;4.28;;;2.83;;
47589;SDS011;33316;52.298;9.056;2022-08-19T07:23:30;4.00;;;2.97;;
47589;SDS011;33316;52.298;9.056;2022-08-19T07:25:57;4.75;;;2.53;;
47589;SDS011;33316;52.298;9.056;2022-08-19T07:28:23;3.90;;;2.60;;
47589;SDS011;33316;52.298;9.056;2022-08-19T07:30:49;3.15;;;2.30;;
47589;SDS011;33316;52.298;9.056;2022-08-19T07:33:15;3.50;;;2.03;;
47589;SDS011;33316;52.298;9.056;2022-08-19T07:35:42;4.47;;;2.28;;
47589;SDS011;33316;52.298;9.056;2022-08-19T07:38:08;4.82;;;2.70;;
47589;SDS011;33316;52.298;9.056;2022-08-19T07:40:34;3.88;;;2.53;;
47589;SDS011;33316;52.298;9.056;2022-08-19T07:43:00;3.30;;;2.08;;
47589;SDS011;33316;52.298;9.056;2022-08-19T07:45:25;3.50;;;2.65;;
47589;SDS011;33316;52.298;9.056;2022-08-19T07:47:52;3.75;;;2.35;;
47589;SDS011;33316;52.298;9.056;2022-08-19T07:50:19;3.00;;;2.20;;
47589;SDS011;33316;52.298;9.056;2022-08-19T07:52:45;4.13;;;2.88;;
47589;SDS011;33316;52.298;9.056;2022-08-19T07:55:11;6.00;;;2.40;;
47589;SDS011;33316;52.298;9.056;2022-08-19T07:57:37;5.45;;;2.65;;
47589;SDS011;33316;52.298;9.056;2022-08-19T08:00:03;5.07;;;3.50;;
47589;SDS011;33316;52.298;9.056;2022-08-19T08:02:30;4.78;;;2.80;;
47589;SDS011;33316;52.298;9.056;2022-08-19T08:04:56;3.72;;;2.55;;
47589;SDS011;33316;52.298;9.056;2022-08-19T08:07:40;3.35;;;2.42;;
47589;SDS011;33316;52.298;9.056;2022-08-19T08:10:24;3.03;;;2.28;;
47589;SDS011;33316;52.298;9.056;2022-08-19T08:12:50;3.70;;;2.35;;
47589;SDS011;33316;52.298;9.056;2022-08-19T08:15:16;3.28;;;2.35;;
47589;SDS011;33316;52.298;9.056;2022-08-19T08:17:41;3.03;;;2.22;;
47589;SDS011;33316;52.298;9.056;2022-08-19T08:20:08;3.47;;;2.63;;
47589;SDS011;33316;52.298;9.056;2022-08-19T08:22:33;4.55;;;2.28;;
47589;SDS011;33316;52.298;9.056;2022-08-19T08:25:19;3.83;;;2.20;;
47589;SDS011;33316;52.298;9.056;2022-08-19T08:27:47;3.38;;;1.70;;
47589;SDS011;33316;52.298;9.056;2022-08-19T08:30:24;4.07;;;2.22;;
47589;SDS011;33316;52.298;9.056;2022-08-19T08:32:51;4.50;;;2.78;;
47589;SDS011;33316;52.298;9.056;2022-08-19T08:35:18;4.97;;;2.90;;
47589;SDS011;33316;52.298;9.056;2022-08-19T08:37:46;3.95;;;2.95;;
47589;SDS011;33316;52.298;9.056;2022-08-19T08:45:55;4.43;;;2.78;;
47589;SDS011;33316;52.298;9.056;2022-08-19T08:48:41;5.47;;;3.63;;
47589;SDS011;33316;52.298;9.056;2022-08-19T08:51:15;3.15;;;2.45;;
47589;SDS011;33316;52.298;9.056;2022-08-19T08:53:58;5.35;;;3.00;;
47589;SDS011;33316;52.298;9.056;2022-08-19T08:56:25;6.13;;;3.92;;
47589;SDS011;33316;52.298;9.056;2022-08-19T08:58:56;5.93;;;3.13;;
47589;SDS011;33316;52.298;9.056;2022-08-19T09:04:07;6.70;;;3.90;;
47589;SDS011;33316;52.298;9.056;2022-08-19T09:09:18;4.35;;;2.95;;
47589;SDS011;33316;52.298;9.056;2022-08-19T09:15:09;4.63;;;2.92;;
47589;SDS011;33316;52.298;9.056;2022-08-19T09:17:37;3.53;;;2.38;;
47589;SDS011;33316;52.298;9.056;2022-08-19T09:22:39;5.75;;;3.05;;
47589;SDS011;33316;52.298;9.056;2022-08-19T09:25:09;3.45;;;1.98;;
47589;SDS011;33316;52.298;9.056;2022-08-19T09:27:37;2.60;;;1.33;;
47589;SDS011;33316;52.298;9.056;2022-08-19T09:30:05;2.22;;;1.60;;
47589;SDS011;33316;52.298;9.056;2022-08-19T09:32:33;1.90;;;1.20;;
47589;SDS011;33316;52.298;9.056;2022-08-19T09:34:59;2.03;;;1.02;;
47589;SDS011;33316;52.298;9.056;2022-08-19T09:37:25;1.75;;;0.90;;
47589;SDS011;33316;52.298;9.056;2022-08-19T09:39:51;1.70;;;1.00;;
47589;SDS011;33316;52.298;9.056;2022-08-19T09:42:17;3.13;;;1.88;;
47589;SDS011;33316;52.298;9.056;2022-08-19T09:44:43;1.80;;;1.27;;
47589;SDS011;33316;52.298;9.056;2022-08-19T09:47:10;1.48;;;0.80;;
47589;SDS011;33316;52.298;9.056;2022-08-19T09:49:37;2.20;;;1.30;;
47589;SDS011;33316;52.298;9.056;2022-08-19T09:52:04;1.52;;;1.15;;
47589;SDS011;33316;52.298;9.056;2022-08-19T09:54:31;1.38;;;0.93;;
47589;SDS011;33316;52.298;9.056;2022-08-19T09:56:57;2.05;;;1.02;;
47589;SDS011;33316;52.298;9.056;2022-08-19T09:59:25;2.10;;;0.95;;
47589;SDS011;33316;52.298;9.056;2022-08-19T10:01:51;2.05;;;0.90;;
47589;SDS011;33316;52.298;9.056;2022-08-19T10:04:17;1.40;;;0.85;;
47589;SDS011;33316;52.298;9.056;2022-08-19T10:06:42;1.58;;;0.88;;
47589;SDS011;33316;52.298;9.056;2022-08-19T10:09:09;1.77;;;0.93;;
47589;SDS011;33316;52.298;9.056;2022-08-19T10:11:36;1.23;;;0.80;;
47589;SDS011;33316;52.298;9.056;2022-08-19T10:14:05;1.10;;;0.80;;
47589;SDS011;33316;52.298;9.056;2022-08-19T10:16:31;1.58;;;0.80;;
47589;SDS011;33316;52.298;9.056;2022-08-19T10:18:57;2.88;;;0.73;;
47589;SDS011;33316;52.298;9.056;2022-08-19T10:21:24;1.17;;;0.73;;
47589;SDS011;33316;52.298;9.056;2022-08-19T10:23:52;2.10;;;0.90;;
47589;SDS011;33316;52.298;9.056;2022-08-19T10:26:23;1.35;;;0.88;;
47589;SDS011;33316;52.298;9.056;2022-08-19T10:28:51;2.05;;;1.10;;
47589;SDS011;33316;52.298;9.056;2022-08-19T10:31:19;1.52;;;0.80;;
47589;SDS011;33316;52.298;9.056;2022-08-19T10:33:47;1.02;;;0.70;;
47589;SDS011;33316;52.298;9.056;2022-08-19T10:36:15;1.40;;;0.75;;
47589;SDS011;33316;52.298;9.056;2022-08-19T10:38:44;1.48;;;0.90;;
47589;SDS011;33316;52.298;9.056;2022-08-19T10:41:12;1.98;;;0.90;;
47589;SDS011;33316;52.298;9.056;2022-08-19T10:43:43;0.60;;;0.43;;
47589;SDS011;33316;52.298;9.056;2022-08-19T10:46:11;1.08;;;0.70;;
47589;SDS011;33316;52.298;9.056;2022-08-19T10:48:38;1.17;;;0.52;;
47589;SDS011;33316;52.298;9.056;2022-08-19T10:51:05;1.55;;;0.88;;
47589;SDS011;33316;52.298;9.056;2022-08-19T10:53:50;2.38;;;0.90;;
47589;SDS011;33316;52.298;9.056;2022-08-19T10:56:16;0.75;;;0.60;;
47589;SDS011;33316;52.298;9.056;2022-08-19T10:59:01;1.10;;;0.80;;
47589;SDS011;33316;52.298;9.056;2022-08-19T11:01:28;1.25;;;0.80;;
47589;SDS011;33316;52.298;9.056;2022-08-19T11:03:56;1.23;;;0.60;;
47589;SDS011;33316;52.298;9.056;2022-08-19T11:06:22;0.77;;;0.55;;
47589;SDS011;33316;52.298;9.056;2022-08-19T11:08:50;1.42;;;0.60;;
47589;SDS011;33316;52.298;9.056;2022-08-19T11:11:17;1.50;;;0.80;;
47589;SDS011;33316;52.298;9.056;2022-08-19T11:13:43;1.50;;;0.80;;
47589;SDS011;33316;52.298;9.056;2022-08-19T11:16:13;0.68;;;0.40;;
47589;SDS011;33316;52.298;9.056;2022-08-19T11:18:48;0.95;;;0.40;;
47589;SDS011;33316;52.298;9.056;2022-08-19T11:21:20;0.80;;;0.47;;
47589;SDS011;33316;52.298;9.056;2022-08-19T11:23:49;0.68;;;0.40;;
47589;SDS011;33316;52.298;9.056;2022-08-19T11:26:17;0.80;;;0.40;;
47589;SDS011;33316;52.298;9.056;2022-08-19T11:28:44;1.02;;;0.40;;
47589;SDS011;33316;52.298;9.056;2022-08-19T11:31:11;0.70;;;0.32;;
47589;SDS011;33316;52.298;9.056;2022-08-19T11:33:42;1.83;;;0.50;;
47589;SDS011;33316;52.298;9.056;2022-08-19T11:36:08;0.75;;;0.47;;
47589;SDS011;33316;52.298;9.056;2022-08-19T11:38:35;0.80;;;0.30;;
47589;SDS011;33316;52.298;9.056;2022-08-19T11:41:03;0.80;;;0.40;;
47589;SDS011;33316;52.298;9.056;2022-08-19T11:43:31;0.80;;;0.60;;
47589;SDS011;33316;52.298;9.056;2022-08-19T11:45:57;0.43;;;0.32;;
47589;SDS011;33316;52.298;9.056;2022-08-19T11:48:23;0.40;;;0.40;;
47589;SDS011;33316;52.298;9.056;2022-08-19T11:50:50;0.88;;;0.40;;
47589;SDS011;33316;52.298;9.056;2022-08-19T11:53:18;0.73;;;0.43;;
47589;SDS011;33316;52.298;9.056;2022-08-19T11:55:45;0.63;;;0.20;;
47589;SDS011;33316;52.298;9.056;2022-08-19T11:58:12;0.43;;;0.30;;
47589;SDS011;33316;52.298;9.056;2022-08-19T12:00:40;1.05;;;0.40;;
47589;SDS011;33316;52.298;9.056;2022-08-19T12:03:07;1.48;;;0.45;;
47589;SDS011;33316;52.298;9.056;2022-08-19T12:05:33;0.32;;;0.30;;
47589;SDS011;33316;52.298;9.056;2022-08-19T12:08:01;0.70;;;0.30;;
47589;SDS011;33316;52.298;9.056;2022-08-19T12:10:27;0.47;;;0.38;;
47589;SDS011;33316;52.298;9.056;2022-08-19T12:12:52;0.38;;;0.30;;
47589;SDS011;33316;52.298;9.056;2022-08-19T12:15:18;0.90;;;0.60;;
47589;SDS011;33316;52.298;9.056;2022-08-19T12:17:43;0.55;;;0.28;;
47589;SDS011;33316;52.298;9.056;2022-08-19T12:20:09;1.13;;;0.38;;
47589;SDS011;33316;52.298;9.056;2022-08-19T12:22:36;0.70;;;0.40;;
47589;SDS011;33316;52.298;9.056;2022-08-19T12:25:03;0.85;;;0.45;;
47589;SDS011;33316;52.298;9.056;2022-08-19T12:27:30;0.85;;;0.50;;
47589;SDS011;33316;52.298;9.056;2022-08-19T12:29:55;0.80;;;0.40;;
47589;SDS011;33316;52.298;9.056;2022-08-19T12:32:22;0.43;;;0.30;;
47589;SDS011;33316;52.298;9.056;2022-08-19T12:34:49;4.28;;;0.50;;
47589;SDS011;33316;52.298;9.056;2022-08-19T12:37:15;0.77;;;0.45;;
47589;SDS011;33316;52.298;9.056;2022-08-19T12:39:41;0.63;;;0.20;;
47589;SDS011;33316;52.298;9.056;2022-08-19T12:42:08;0.70;;;0.40;;
47589;SDS011;33316;52.298;9.056;2022-08-19T12:44:36;0.35;;;0.32;;
47589;SDS011;33316;52.298;9.056;2022-08-19T12:47:02;1.02;;;0.50;;
47589;SDS011;33316;52.298;9.056;2022-08-19T12:49:29;1.05;;;0.40;;
47589;SDS011;33316;52.298;9.056;2022-08-19T12:51:56;0.65;;;0.50;;
47589;SDS011;33316;52.298;9.056;2022-08-19T12:54:23;0.63;;;0.40;;
47589;SDS011;33316;52.298;9.056;2022-08-19T12:56:48;1.85;;;0.57;;
47589;SDS011;33316;52.298;9.056;2022-08-19T12:59:14;0.50;;;0.50;;
47589;SDS011;33316;52.298;9.056;2022-08-19T13:01:43;1.00;;;0.40;;
47589;SDS011;33316;52.298;9.056;2022-08-19T13:04:09;0.70;;;0.57;;
47589;SDS011;33316;52.298;9.056;2022-08-19T13:06:35;0.90;;;0.50;;
47589;SDS011;33316;52.298;9.056;2022-08-19T13:09:01;1.25;;;0.40;;
47589;SDS011;33316;52.298;9.056;2022-08-19T13:11:26;0.55;;;0.50;;
47589;SDS011;33316;52.298;9.056;2022-08-19T13:13:57;0.70;;;0.35;;
47589;SDS011;33316;52.298;9.056;2022-08-19T13:16:23;1.67;;;0.47;;
47589;SDS011;33316;52.298;9.056;2022-08-19T13:18:49;0.65;;;0.50;;
47589;SDS011;33316;52.298;9.056;2022-08-19T13:21:17;0.63;;;0.45;;
47589;SDS011;33316;52.298;9.056;2022-08-19T13:23:45;1.00;;;0.50;;
47589;SDS011;33316;52.298;9.056;2022-08-19T13:26:11;1.55;;;0.50;;
47589;SDS011;33316;52.298;9.056;2022-08-19T13:28:37;0.50;;;0.40;;
47589;SDS011;33316;52.298;9.056;2022-08-19T13:31:23;0.65;;;0.43;;
47589;SDS011;33316;52.298;9.056;2022-08-19T13:34:09;0.50;;;0.40;;
47589;SDS011;33316;52.298;9.056;2022-08-19T13:36:35;0.50;;;0.30;;
47589;SDS011;33316;52.298;9.056;2022-08-19T13:39:02;1.10;;;0.70;;
47589;SDS011;33316;52.298;9.056;2022-08-19T13:41:28;1.38;;;0.85;;
47589;SDS011;33316;52.298;9.056;2022-08-19T13:43:54;1.02;;;0.70;;
47589;SDS011;33316;52.298;9.056;2022-08-19T13:46:20;1.60;;;0.80;;
47589;SDS011;33316;52.298;9.056;2022-08-19T13:48:46;0.90;;;0.50;;
47589;SDS011;33316;52.298;9.056;2022-08-19T13:51:12;0.70;;;0.70;;
47589;SDS011;33316;52.298;9.056;2022-08-19T13:53:38;1.00;;;0.50;;
47589;SDS011;33316;52.298;9.056;2022-08-19T13:56:07;1.27;;;0.57;;
47589;SDS011;33316;52.298;9.056;2022-08-19T13:58:34;1.40;;;0.60;;
47589;SDS011;33316;52.298;9.056;2022-08-19T14:01:00;0.70;;;0.45;;
47589;SDS011;33316;52.298;9.056;2022-08-19T14:03:26;0.85;;;0.77;;
47589;SDS011;33316;52.298;9.056;2022-08-19T14:05:52;0.60;;;0.50;;
47589;SDS011;33316;52.298;9.056;2022-08-19T14:08:18;1.17;;;0.50;;
47589;SDS011;33316;52.298;9.056;2022-08-19T14:10:43;2.08;;;0.65;;
47589;SDS011;33316;52.298;9.056;2022-08-19T14:13:10;0.88;;;0.60;;
47589;SDS011;33316;52.298;9.056;2022-08-19T14:15:39;0.40;;;0.40;;
47589;SDS011;33316;52.298;9.056;2022-08-19T14:18:05;2.03;;;0.60;;
47589;SDS011;33316;52.298;9.056;2022-08-19T14:20:33;0.77;;;0.43;;
47589;SDS011;33316;52.298;9.056;2022-08-19T14:23:00;0.77;;;0.60;;
47589;SDS011;33316;52.298;9.056;2022-08-19T14:25:27;0.82;;;0.52;;
47589;SDS011;33316;52.298;9.056;2022-08-19T14:27:54;3.25;;;0.77;;
47589;SDS011;33316;52.298;9.056;2022-08-19T14:30:21;0.75;;;0.57;;
47589;SDS011;33316;52.298;9.056;2022-08-19T14:32:51;0.75;;;0.70;;
47589;SDS011;33316;52.298;9.056;2022-08-19T14:35:17;0.35;;;0.32;;
47589;SDS011;33316;52.298;9.056;2022-08-19T14:37:43;0.80;;;0.60;;
47589;SDS011;33316;52.298;9.056;2022-08-19T14:40:10;0.75;;;0.50;;
47589;SDS011;33316;52.298;9.056;2022-08-19T14:42:36;0.57;;;0.50;;
47589;SDS011;33316;52.298;9.056;2022-08-19T14:45:02;1.45;;;0.38;;
47589;SDS011;33316;52.298;9.056;2022-08-19T14:47:30;0.50;;;0.35;;
47589;SDS011;33316;52.298;9.056;2022-08-19T14:49:56;1.15;;;0.60;;
47589;SDS011;33316;52.298;9.056;2022-08-19T14:52:21;0.60;;;0.60;;
47589;SDS011;33316;52.298;9.056;2022-08-19T14:54:47;1.35;;;0.50;;
47589;SDS011;33316;52.298;9.056;2022-08-19T14:57:13;0.50;;;0.50;;
47589;SDS011;33316;52.298;9.056;2022-08-19T14:59:40;0.75;;;0.50;;
47589;SDS011;33316;52.298;9.056;2022-08-19T15:02:09;0.93;;;0.50;;
47589;SDS011;33316;52.298;9.056;2022-08-19T15:04:38;1.00;;;0.50;;
47589;SDS011;33316;52.298;9.056;2022-08-19T15:07:04;1.00;;;0.60;;
47589;SDS011;33316;52.298;9.056;2022-08-19T15:09:30;1.65;;;0.50;;
47589;SDS011;33316;52.298;9.056;2022-08-19T15:11:57;0.77;;;0.40;;
47589;SDS011;33316;52.298;9.056;2022-08-19T15:14:26;0.70;;;0.40;;
47589;SDS011;33316;52.298;9.056;2022-08-19T15:16:53;0.88;;;0.50;;
47589;SDS011;33316;52.298;9.056;2022-08-19T15:19:18;0.80;;;0.50;;